sensor_id;sensor_type;location;lat;lon;timestamp;P1;durP1;ratioP1;P2;durP2;ratioP2
40611;SDS011;26317;44.894;20.286;2023-07-24T00:00:43;16.85;;;15.18;;
40611;SDS011;26317;44.894;20.286;2023-07-24T00:03:15;17.02;;;15.43;;
40611;SDS011;26317;44.894;20.286;2023-07-24T00:05:53;20.13;;;15.60;;
40611;SDS011;26317;44.894;20.286;2023-07-24T00:08:32;18.02;;;15.20;;
40611;SDS011;26317;44.894;20.286;2023-07-24T00:11:06;15.70;;;14.10;;
40611;SDS011;26317;44.894;20.286;2023-07-24T00:13:37;17.10;;;15.38;;
40611;SDS011;26317;44.894;20.286;2023-07-24T00:16:10;17.60;;;15.88;;
40611;SDS011;26317;44.894;20.286;2023-07-24T00:18:43;15.65;;;14.25;;
40611;SDS011;26317;44.894;20.286;2023-07-24T00:21:18;16.38;;;14.77;;
40611;SDS011;26317;44.894;20.286;2023-07-24T00:23:51;17.40;;;15.60;;
40611;SDS011;26317;44.894;20.286;2023-07-24T00:26:21;16.17;;;14.68;;
40611;SDS011;26317;44.894;20.286;2023-07-24T00:28:53;16.23;;;14.55;;
40611;SDS011;26317;44.894;20.286;2023-07-24T00:31:23;17.30;;;15.25;;
40611;SDS011;26317;44.894;20.286;2023-07-24T00:33:54;16.77;;;15.18;;
40611;SDS011;26317;44.894;20.286;2023-07-24T00:36:29;16.63;;;15.00;;
40611;SDS011;26317;44.894;20.286;2023-07-24T00:39:00;18.33;;;15.63;;
40611;SDS011;26317;44.894;20.286;2023-07-24T00:41:30;16.02;;;14.52;;
40611;SDS011;26317;44.894;20.286;2023-07-24T00:44:01;16.25;;;14.55;;
40611;SDS011;26317;44.894;20.286;2023-07-24T00:46:31;17.25;;;15.43;;
40611;SDS011;26317;44.894;20.286;2023-07-24T00:51:36;16.77;;;15.02;;
40611;SDS011;26317;44.894;20.286;2023-07-24T00:54:06;16.42;;;14.82;;
40611;SDS011;26317;44.894;20.286;2023-07-24T00:56:38;17.25;;;15.55;;
40611;SDS011;26317;44.894;20.286;2023-07-24T00:59:08;18.42;;;15.48;;
40611;SDS011;26317;44.894;20.286;2023-07-24T01:01:38;18.75;;;16.33;;
40611;SDS011;26317;44.894;20.286;2023-07-24T01:04:11;17.20;;;15.57;;
40611;SDS011;26317;44.894;20.286;2023-07-24T01:06:45;19.42;;;16.83;;
40611;SDS011;26317;44.894;20.286;2023-07-24T01:09:16;16.77;;;15.30;;
40611;SDS011;26317;44.894;20.286;2023-07-24T01:11:47;18.65;;;16.75;;
40611;SDS011;26317;44.894;20.286;2023-07-24T01:14:21;17.85;;;16.15;;
40611;SDS011;26317;44.894;20.286;2023-07-24T01:16:57;18.70;;;16.80;;
40611;SDS011;26317;44.894;20.286;2023-07-24T01:19:33;16.92;;;15.35;;
40611;SDS011;26317;44.894;20.286;2023-07-24T01:22:12;17.98;;;16.23;;
40611;SDS011;26317;44.894;20.286;2023-07-24T01:25:00;18.85;;;16.58;;
40611;SDS011;26317;44.894;20.286;2023-07-24T01:27:39;19.17;;;17.27;;
40611;SDS011;26317;44.894;20.286;2023-07-24T01:30:11;18.80;;;17.00;;
40611;SDS011;26317;44.894;20.286;2023-07-24T01:35:11;20.10;;;18.20;;
40611;SDS011;26317;44.894;20.286;2023-07-24T01:37:42;20.50;;;18.40;;
40611;SDS011;26317;44.894;20.286;2023-07-24T01:40:13;19.65;;;17.65;;
40611;SDS011;26317;44.894;20.286;2023-07-24T01:42:47;18.33;;;16.60;;
40611;SDS011;26317;44.894;20.286;2023-07-24T01:45:17;18.27;;;16.48;;
40611;SDS011;26317;44.894;20.286;2023-07-24T01:47:48;18.90;;;16.90;;
40611;SDS011;26317;44.894;20.286;2023-07-24T01:50:18;20.70;;;17.92;;
40611;SDS011;26317;44.894;20.286;2023-07-24T01:52:49;21.48;;;18.45;;
40611;SDS011;26317;44.894;20.286;2023-07-24T01:55:19;20.00;;;18.15;;
40611;SDS011;26317;44.894;20.286;2023-07-24T01:57:54;19.15;;;17.30;;
40611;SDS011;26317;44.894;20.286;2023-07-24T02:00:25;19.70;;;17.85;;
40611;SDS011;26317;44.894;20.286;2023-07-24T02:02:58;22.75;;;18.55;;
40611;SDS011;26317;44.894;20.286;2023-07-24T02:05:29;19.67;;;17.63;;
40611;SDS011;26317;44.894;20.286;2023-07-24T02:08:06;20.50;;;18.60;;
40611;SDS011;26317;44.894;20.286;2023-07-24T02:10:38;19.80;;;18.00;;
40611;SDS011;26317;44.894;20.286;2023-07-24T02:13:16;22.40;;;19.35;;
40611;SDS011;26317;44.894;20.286;2023-07-24T02:15:50;20.65;;;18.48;;
40611;SDS011;26317;44.894;20.286;2023-07-24T02:18:20;20.23;;;18.27;;
40611;SDS011;26317;44.894;20.286;2023-07-24T02:20:51;21.20;;;18.67;;
40611;SDS011;26317;44.894;20.286;2023-07-24T02:23:29;20.40;;;18.50;;
40611;SDS011;26317;44.894;20.286;2023-07-24T02:26:06;20.67;;;18.52;;
40611;SDS011;26317;44.894;20.286;2023-07-24T02:28:45;22.45;;;20.35;;
40611;SDS011;26317;44.894;20.286;2023-07-24T02:31:23;21.25;;;19.13;;
40611;SDS011;26317;44.894;20.286;2023-07-24T02:33:56;21.80;;;19.70;;
40611;SDS011;26317;44.894;20.286;2023-07-24T02:36:27;20.60;;;18.60;;
40611;SDS011;26317;44.894;20.286;2023-07-24T02:38:57;20.17;;;18.33;;
40611;SDS011;26317;44.894;20.286;2023-07-24T02:41:28;20.02;;;18.05;;
40611;SDS011;26317;44.894;20.286;2023-07-24T02:44:01;22.45;;;20.05;;
40611;SDS011;26317;44.894;20.286;2023-07-24T02:46:33;21.92;;;19.40;;
40611;SDS011;26317;44.894;20.286;2023-07-24T02:49:03;23.42;;;20.85;;
40611;SDS011;26317;44.894;20.286;2023-07-24T02:51:34;22.55;;;20.45;;
40611;SDS011;26317;44.894;20.286;2023-07-24T02:54:04;23.33;;;21.00;;
40611;SDS011;26317;44.894;20.286;2023-07-24T02:56:34;22.45;;;19.30;;
40611;SDS011;26317;44.894;20.286;2023-07-24T02:59:08;22.52;;;20.35;;
40611;SDS011;26317;44.894;20.286;2023-07-24T03:01:38;23.45;;;20.58;;
40611;SDS011;26317;44.894;20.286;2023-07-24T03:04:09;21.73;;;19.48;;
40611;SDS011;26317;44.894;20.286;2023-07-24T03:06:39;20.83;;;18.73;;
40611;SDS011;26317;44.894;20.286;2023-07-24T03:09:09;22.83;;;19.60;;
40611;SDS011;26317;44.894;20.286;2023-07-24T03:11:40;24.67;;;22.25;;
40611;SDS011;26317;44.894;20.286;2023-07-24T03:14:12;23.77;;;21.58;;
40611;SDS011;26317;44.894;20.286;2023-07-24T03:16:43;24.10;;;20.73;;
40611;SDS011;26317;44.894;20.286;2023-07-24T03:19:13;25.00;;;22.13;;
40611;SDS011;26317;44.894;20.286;2023-07-24T03:21:48;24.50;;;22.00;;
40611;SDS011;26317;44.894;20.286;2023-07-24T03:24:18;24.02;;;21.25;;
40611;SDS011;26317;44.894;20.286;2023-07-24T03:26:48;23.15;;;20.80;;
40611;SDS011;26317;44.894;20.286;2023-07-24T03:29:23;22.77;;;20.45;;
40611;SDS011;26317;44.894;20.286;2023-07-24T03:31:54;22.42;;;20.17;;
40611;SDS011;26317;44.894;20.286;2023-07-24T03:36:57;21.88;;;19.60;;
40611;SDS011;26317;44.894;20.286;2023-07-24T03:39:29;21.38;;;19.23;;
40611;SDS011;26317;44.894;20.286;2023-07-24T03:42:00;22.58;;;20.38;;
40611;SDS011;26317;44.894;20.286;2023-07-24T03:44:35;22.77;;;20.40;;
40611;SDS011;26317;44.894;20.286;2023-07-24T03:47:05;26.88;;;21.90;;
40611;SDS011;26317;44.894;20.286;2023-07-24T03:49:35;24.45;;;21.95;;
40611;SDS011;26317;44.894;20.286;2023-07-24T03:52:06;23.35;;;20.73;;
40611;SDS011;26317;44.894;20.286;2023-07-24T03:54:37;24.88;;;22.27;;
40611;SDS011;26317;44.894;20.286;2023-07-24T03:57:07;24.13;;;21.83;;
40611;SDS011;26317;44.894;20.286;2023-07-24T03:59:40;23.48;;;21.02;;
40611;SDS011;26317;44.894;20.286;2023-07-24T04:02:11;24.58;;;22.02;;
40611;SDS011;26317;44.894;20.286;2023-07-24T04:04:42;24.15;;;20.95;;
40611;SDS011;26317;44.894;20.286;2023-07-24T04:07:12;24.27;;;21.67;;
40611;SDS011;26317;44.894;20.286;2023-07-24T04:09:42;22.48;;;20.20;;
40611;SDS011;26317;44.894;20.286;2023-07-24T04:12:14;24.65;;;22.25;;
40611;SDS011;26317;44.894;20.286;2023-07-24T04:14:52;24.42;;;21.95;;
40611;SDS011;26317;44.894;20.286;2023-07-24T04:17:22;23.40;;;21.20;;
40611;SDS011;26317;44.894;20.286;2023-07-24T04:19:54;24.38;;;21.95;;
40611;SDS011;26317;44.894;20.286;2023-07-24T04:22:26;24.50;;;22.00;;
40611;SDS011;26317;44.894;20.286;2023-07-24T04:25:09;25.35;;;22.75;;
40611;SDS011;26317;44.894;20.286;2023-07-24T04:27:42;24.50;;;21.90;;
40611;SDS011;26317;44.894;20.286;2023-07-24T04:30:16;27.85;;;25.17;;
40611;SDS011;26317;44.894;20.286;2023-07-24T04:32:46;28.23;;;25.33;;
40611;SDS011;26317;44.894;20.286;2023-07-24T04:35:17;28.15;;;25.05;;
40611;SDS011;26317;44.894;20.286;2023-07-24T04:37:50;27.33;;;24.67;;
40611;SDS011;26317;44.894;20.286;2023-07-24T04:40:20;26.27;;;23.73;;
40611;SDS011;26317;44.894;20.286;2023-07-24T04:42:51;28.83;;;24.55;;
40611;SDS011;26317;44.894;20.286;2023-07-24T04:45:24;26.42;;;23.25;;
40611;SDS011;26317;44.894;20.286;2023-07-24T04:47:54;27.02;;;24.33;;
40611;SDS011;26317;44.894;20.286;2023-07-24T04:50:33;26.65;;;23.85;;
40611;SDS011;26317;44.894;20.286;2023-07-24T04:53:03;29.98;;;23.17;;
40611;SDS011;26317;44.894;20.286;2023-07-24T04:55:34;26.02;;;23.08;;
40611;SDS011;26317;44.894;20.286;2023-07-24T04:58:04;32.20;;;24.88;;
40611;SDS011;26317;44.894;20.286;2023-07-24T05:00:37;29.23;;;26.23;;
40611;SDS011;26317;44.894;20.286;2023-07-24T05:03:07;27.30;;;24.63;;
40611;SDS011;26317;44.894;20.286;2023-07-24T05:05:38;32.85;;;24.23;;
40611;SDS011;26317;44.894;20.286;2023-07-24T05:08:15;34.95;;;23.13;;
40611;SDS011;26317;44.894;20.286;2023-07-24T05:10:54;26.98;;;24.35;;
40611;SDS011;26317;44.894;20.286;2023-07-24T05:13:28;28.30;;;25.35;;
40611;SDS011;26317;44.894;20.286;2023-07-24T05:16:14;27.05;;;24.35;;
40611;SDS011;26317;44.894;20.286;2023-07-24T05:18:48;27.92;;;25.10;;
40611;SDS011;26317;44.894;20.286;2023-07-24T05:21:19;28.20;;;24.73;;
40611;SDS011;26317;44.894;20.286;2023-07-24T05:23:52;31.63;;;25.13;;
40611;SDS011;26317;44.894;20.286;2023-07-24T05:26:32;27.38;;;24.27;;
40611;SDS011;26317;44.894;20.286;2023-07-24T05:29:07;30.90;;;25.38;;
40611;SDS011;26317;44.894;20.286;2023-07-24T05:31:42;27.02;;;24.27;;
40611;SDS011;26317;44.894;20.286;2023-07-24T05:34:12;27.85;;;24.88;;
40611;SDS011;26317;44.894;20.286;2023-07-24T05:36:51;28.77;;;25.73;;
40611;SDS011;26317;44.894;20.286;2023-07-24T05:39:23;28.60;;;25.63;;
40611;SDS011;26317;44.894;20.286;2023-07-24T05:41:55;29.13;;;25.13;;
40611;SDS011;26317;44.894;20.286;2023-07-24T05:44:26;25.92;;;23.33;;
40611;SDS011;26317;44.894;20.286;2023-07-24T05:47:09;27.05;;;23.45;;
40611;SDS011;26317;44.894;20.286;2023-07-24T05:49:41;25.13;;;22.48;;
40611;SDS011;26317;44.894;20.286;2023-07-24T05:52:14;22.77;;;20.38;;
40611;SDS011;26317;44.894;20.286;2023-07-24T05:54:54;25.48;;;22.88;;
40611;SDS011;26317;44.894;20.286;2023-07-24T05:57:27;26.77;;;21.63;;
40611;SDS011;26317;44.894;20.286;2023-07-24T06:00:01;24.45;;;21.95;;
40611;SDS011;26317;44.894;20.286;2023-07-24T06:02:44;24.23;;;21.75;;
40611;SDS011;26317;44.894;20.286;2023-07-24T06:05:16;25.10;;;22.48;;
40611;SDS011;26317;44.894;20.286;2023-07-24T06:07:49;25.02;;;22.30;;
40611;SDS011;26317;44.894;20.286;2023-07-24T06:10:23;35.22;;;22.75;;
40611;SDS011;26317;44.894;20.286;2023-07-24T06:13:05;24.88;;;22.27;;
40611;SDS011;26317;44.894;20.286;2023-07-24T06:15:46;27.65;;;22.15;;
40611;SDS011;26317;44.894;20.286;2023-07-24T06:18:26;23.70;;;21.08;;
40611;SDS011;26317;44.894;20.286;2023-07-24T06:21:02;24.25;;;21.83;;
40611;SDS011;26317;44.894;20.286;2023-07-24T06:23:38;26.50;;;22.58;;
40611;SDS011;26317;44.894;20.286;2023-07-24T06:26:11;29.27;;;20.85;;
40611;SDS011;26317;44.894;20.286;2023-07-24T06:28:45;27.48;;;21.02;;
40611;SDS011;26317;44.894;20.286;2023-07-24T06:31:20;23.60;;;21.15;;
40611;SDS011;26317;44.894;20.286;2023-07-24T06:34:00;24.17;;;21.05;;
40611;SDS011;26317;44.894;20.286;2023-07-24T06:36:34;25.88;;;21.25;;
40611;SDS011;26317;44.894;20.286;2023-07-24T06:39:08;27.65;;;19.77;;
40611;SDS011;26317;44.894;20.286;2023-07-24T06:41:42;25.67;;;21.08;;
40611;SDS011;26317;44.894;20.286;2023-07-24T06:44:24;24.42;;;21.20;;
40611;SDS011;26317;44.894;20.286;2023-07-24T06:46:55;26.70;;;21.70;;
40611;SDS011;26317;44.894;20.286;2023-07-24T06:49:28;24.33;;;21.85;;
40611;SDS011;26317;44.894;20.286;2023-07-24T06:51:58;23.95;;;21.55;;
40611;SDS011;26317;44.894;20.286;2023-07-24T06:54:28;25.50;;;20.85;;
40611;SDS011;26317;44.894;20.286;2023-07-24T06:56:58;24.02;;;20.77;;
40611;SDS011;26317;44.894;20.286;2023-07-24T06:59:29;24.25;;;20.33;;
40611;SDS011;26317;44.894;20.286;2023-07-24T07:02:00;21.02;;;18.73;;
40611;SDS011;26317;44.894;20.286;2023-07-24T07:04:34;24.38;;;20.38;;
40611;SDS011;26317;44.894;20.286;2023-07-24T07:07:04;22.08;;;19.15;;
40611;SDS011;26317;44.894;20.286;2023-07-24T07:09:38;21.17;;;18.58;;
40611;SDS011;26317;44.894;20.286;2023-07-24T07:12:08;24.67;;;19.35;;
40611;SDS011;26317;44.894;20.286;2023-07-24T07:14:40;20.90;;;18.80;;
40611;SDS011;26317;44.894;20.286;2023-07-24T07:17:12;26.25;;;18.30;;
40611;SDS011;26317;44.894;20.286;2023-07-24T07:19:55;27.45;;;18.30;;
40611;SDS011;26317;44.894;20.286;2023-07-24T07:22:26;20.92;;;18.20;;
40611;SDS011;26317;44.894;20.286;2023-07-24T07:25:02;25.70;;;18.02;;
40611;SDS011;26317;44.894;20.286;2023-07-24T07:27:37;20.25;;;17.45;;
40611;SDS011;26317;44.894;20.286;2023-07-24T07:30:12;21.35;;;17.15;;
40611;SDS011;26317;44.894;20.286;2023-07-24T07:32:43;20.25;;;17.02;;
40611;SDS011;26317;44.894;20.286;2023-07-24T07:35:22;24.15;;;18.77;;
40611;SDS011;26317;44.894;20.286;2023-07-24T07:37:56;19.90;;;16.92;;
40611;SDS011;26317;44.894;20.286;2023-07-24T07:40:32;22.73;;;17.33;;
40611;SDS011;26317;44.894;20.286;2023-07-24T07:43:05;23.88;;;18.17;;
40611;SDS011;26317;44.894;20.286;2023-07-24T07:45:46;20.55;;;16.90;;
40611;SDS011;26317;44.894;20.286;2023-07-24T07:48:20;21.52;;;17.40;;
40611;SDS011;26317;44.894;20.286;2023-07-24T07:50:57;25.30;;;17.05;;
40611;SDS011;26317;44.894;20.286;2023-07-24T07:53:33;21.25;;;16.15;;
40611;SDS011;26317;44.894;20.286;2023-07-24T07:56:09;21.95;;;16.58;;
40611;SDS011;26317;44.894;20.286;2023-07-24T07:58:42;21.45;;;15.85;;
40611;SDS011;26317;44.894;20.286;2023-07-24T08:01:19;20.35;;;16.35;;
40611;SDS011;26317;44.894;20.286;2023-07-24T08:03:50;20.65;;;16.08;;
40611;SDS011;26317;44.894;20.286;2023-07-24T08:06:35;20.80;;;15.50;;
40611;SDS011;26317;44.894;20.286;2023-07-24T08:09:12;17.67;;;15.02;;
40611;SDS011;26317;44.894;20.286;2023-07-24T08:11:46;20.08;;;15.18;;
40611;SDS011;26317;44.894;20.286;2023-07-24T08:14:21;21.85;;;16.52;;
40611;SDS011;26317;44.894;20.286;2023-07-24T08:16:52;20.02;;;14.38;;
40611;SDS011;26317;44.894;20.286;2023-07-24T08:19:31;21.55;;;15.18;;
40611;SDS011;26317;44.894;20.286;2023-07-24T08:22:06;22.40;;;14.70;;
40611;SDS011;26317;44.894;20.286;2023-07-24T08:24:43;17.83;;;14.27;;
40611;SDS011;26317;44.894;20.286;2023-07-24T08:27:14;20.77;;;14.98;;
40611;SDS011;26317;44.894;20.286;2023-07-24T08:29:50;21.95;;;14.38;;
40611;SDS011;26317;44.894;20.286;2023-07-24T08:32:26;20.33;;;17.98;;
40611;SDS011;26317;44.894;20.286;2023-07-24T08:35:01;20.85;;;14.70;;
40611;SDS011;26317;44.894;20.286;2023-07-24T08:37:45;20.85;;;13.02;;
40611;SDS011;26317;44.894;20.286;2023-07-24T08:40:17;16.80;;;13.32;;
40611;SDS011;26317;44.894;20.286;2023-07-24T08:42:52;19.58;;;14.32;;
40611;SDS011;26317;44.894;20.286;2023-07-24T08:45:23;23.58;;;14.73;;
40611;SDS011;26317;44.894;20.286;2023-07-24T08:47:55;18.35;;;13.43;;
40611;SDS011;26317;44.894;20.286;2023-07-24T08:50:29;22.17;;;14.68;;
40611;SDS011;26317;44.894;20.286;2023-07-24T08:53:02;17.73;;;13.00;;
40611;SDS011;26317;44.894;20.286;2023-07-24T08:55:33;19.80;;;13.85;;
40611;SDS011;26317;44.894;20.286;2023-07-24T08:58:04;20.58;;;14.57;;
40611;SDS011;26317;44.894;20.286;2023-07-24T09:00:36;23.60;;;14.32;;
40611;SDS011;26317;44.894;20.286;2023-07-24T09:05:36;19.52;;;12.68;;
40611;SDS011;26317;44.894;20.286;2023-07-24T09:08:09;17.55;;;13.98;;
40611;SDS011;26317;44.894;20.286;2023-07-24T09:10:39;18.98;;;14.75;;
40611;SDS011;26317;44.894;20.286;2023-07-24T09:13:11;16.60;;;13.52;;
40611;SDS011;26317;44.894;20.286;2023-07-24T09:15:51;17.85;;;13.07;;
40611;SDS011;26317;44.894;20.286;2023-07-24T09:18:25;27.40;;;14.50;;
40611;SDS011;26317;44.894;20.286;2023-07-24T09:21:00;20.85;;;14.40;;
40611;SDS011;26317;44.894;20.286;2023-07-24T09:23:34;20.10;;;13.75;;
40611;SDS011;26317;44.894;20.286;2023-07-24T09:26:07;19.95;;;14.88;;
40611;SDS011;26317;44.894;20.286;2023-07-24T09:28:40;16.20;;;13.15;;
40611;SDS011;26317;44.894;20.286;2023-07-24T09:31:36;18.95;;;14.02;;
40611;SDS011;26317;44.894;20.286;2023-07-24T09:34:14;20.05;;;14.18;;
40611;SDS011;26317;44.894;20.286;2023-07-24T09:36:45;17.40;;;13.85;;
40611;SDS011;26317;44.894;20.286;2023-07-24T09:39:27;17.58;;;14.05;;
40611;SDS011;26317;44.894;20.286;2023-07-24T09:42:02;25.15;;;14.82;;
40611;SDS011;26317;44.894;20.286;2023-07-24T09:44:33;21.40;;;14.23;;
40611;SDS011;26317;44.894;20.286;2023-07-24T09:47:09;18.95;;;13.52;;
40611;SDS011;26317;44.894;20.286;2023-07-24T09:50:02;17.77;;;13.45;;
40611;SDS011;26317;44.894;20.286;2023-07-24T09:52:37;19.48;;;14.68;;
40611;SDS011;26317;44.894;20.286;2023-07-24T09:55:15;22.27;;;13.95;;
40611;SDS011;26317;44.894;20.286;2023-07-24T09:57:58;26.50;;;14.45;;
40611;SDS011;26317;44.894;20.286;2023-07-24T10:00:30;22.27;;;14.32;;
40611;SDS011;26317;44.894;20.286;2023-07-24T10:03:03;20.10;;;13.82;;
40611;SDS011;26317;44.894;20.286;2023-07-24T10:05:35;18.17;;;14.20;;
40611;SDS011;26317;44.894;20.286;2023-07-24T10:08:06;17.85;;;13.40;;
40611;SDS011;26317;44.894;20.286;2023-07-24T10:13:11;18.10;;;13.18;;
40611;SDS011;26317;44.894;20.286;2023-07-24T10:15:43;30.00;;;14.23;;
40611;SDS011;26317;44.894;20.286;2023-07-24T10:18:16;19.83;;;13.82;;
40611;SDS011;26317;44.894;20.286;2023-07-24T10:20:47;17.48;;;12.77;;
40611;SDS011;26317;44.894;20.286;2023-07-24T10:23:18;19.52;;;13.25;;
40611;SDS011;26317;44.894;20.286;2023-07-24T10:25:51;22.02;;;15.18;;
40611;SDS011;26317;44.894;20.286;2023-07-24T10:28:29;23.00;;;13.57;;
40611;SDS011;26317;44.894;20.286;2023-07-24T10:31:01;18.67;;;14.60;;
40611;SDS011;26317;44.894;20.286;2023-07-24T10:33:36;16.67;;;12.95;;
40611;SDS011;26317;44.894;20.286;2023-07-24T10:36:16;20.02;;;14.90;;
40611;SDS011;26317;44.894;20.286;2023-07-24T10:38:52;19.17;;;14.57;;
40611;SDS011;26317;44.894;20.286;2023-07-24T10:41:33;16.90;;;13.80;;
40611;SDS011;26317;44.894;20.286;2023-07-24T10:44:05;17.70;;;13.63;;
40611;SDS011;26317;44.894;20.286;2023-07-24T10:46:36;19.05;;;14.75;;
40611;SDS011;26317;44.894;20.286;2023-07-24T10:49:08;17.00;;;13.25;;
40611;SDS011;26317;44.894;20.286;2023-07-24T10:51:39;17.33;;;14.95;;
40611;SDS011;26317;44.894;20.286;2023-07-24T10:54:09;21.48;;;14.50;;
40611;SDS011;26317;44.894;20.286;2023-07-24T10:56:42;19.70;;;13.93;;
40611;SDS011;26317;44.894;20.286;2023-07-24T10:59:15;20.33;;;14.70;;
40611;SDS011;26317;44.894;20.286;2023-07-24T11:01:45;18.58;;;14.25;;
40611;SDS011;26317;44.894;20.286;2023-07-24T11:04:16;24.10;;;15.77;;
40611;SDS011;26317;44.894;20.286;2023-07-24T11:06:51;19.45;;;13.43;;
40611;SDS011;26317;44.894;20.286;2023-07-24T11:09:34;22.00;;;15.02;;
40611;SDS011;26317;44.894;20.286;2023-07-24T11:12:21;19.38;;;15.55;;
40611;SDS011;26317;44.894;20.286;2023-07-24T11:14:53;19.30;;;14.73;;
40611;SDS011;26317;44.894;20.286;2023-07-24T11:17:32;20.95;;;14.93;;
40611;SDS011;26317;44.894;20.286;2023-07-24T11:20:09;17.33;;;14.27;;
40611;SDS011;26317;44.894;20.286;2023-07-24T11:22:41;18.20;;;14.18;;
40611;SDS011;26317;44.894;20.286;2023-07-24T11:25:12;18.60;;;14.18;;
40611;SDS011;26317;44.894;20.286;2023-07-24T11:27:45;19.30;;;14.32;;
40611;SDS011;26317;44.894;20.286;2023-07-24T11:30:19;18.55;;;14.23;;
40611;SDS011;26317;44.894;20.286;2023-07-24T11:32:50;20.73;;;14.75;;
40611;SDS011;26317;44.894;20.286;2023-07-24T11:35:21;18.73;;;14.85;;
40611;SDS011;26317;44.894;20.286;2023-07-24T11:37:52;20.25;;;14.15;;
40611;SDS011;26317;44.894;20.286;2023-07-24T11:40:29;21.60;;;16.17;;
40611;SDS011;26317;44.894;20.286;2023-07-24T11:43:04;21.50;;;14.95;;
40611;SDS011;26317;44.894;20.286;2023-07-24T11:45:41;19.13;;;14.95;;
40611;SDS011;26317;44.894;20.286;2023-07-24T11:48:12;20.40;;;15.02;;
40611;SDS011;26317;44.894;20.286;2023-07-24T11:50:43;22.50;;;15.02;;
40611;SDS011;26317;44.894;20.286;2023-07-24T11:53:20;20.75;;;14.55;;
40611;SDS011;26317;44.894;20.286;2023-07-24T11:55:52;21.75;;;15.77;;
40611;SDS011;26317;44.894;20.286;2023-07-24T11:58:28;18.90;;;14.68;;
40611;SDS011;26317;44.894;20.286;2023-07-24T12:00:59;21.65;;;15.77;;
40611;SDS011;26317;44.894;20.286;2023-07-24T12:03:29;20.58;;;15.23;;
40611;SDS011;26317;44.894;20.286;2023-07-24T12:06:00;21.25;;;14.57;;
40611;SDS011;26317;44.894;20.286;2023-07-24T12:08:32;19.13;;;15.18;;
40611;SDS011;26317;44.894;20.286;2023-07-24T12:11:15;17.92;;;14.45;;
40611;SDS011;26317;44.894;20.286;2023-07-24T12:13:49;22.13;;;15.35;;
40611;SDS011;26317;44.894;20.286;2023-07-24T12:16:20;20.85;;;16.25;;
40611;SDS011;26317;44.894;20.286;2023-07-24T12:18:51;22.25;;;15.75;;
40611;SDS011;26317;44.894;20.286;2023-07-24T12:21:21;19.48;;;14.95;;
40611;SDS011;26317;44.894;20.286;2023-07-24T12:26:21;20.13;;;15.38;;
40611;SDS011;26317;44.894;20.286;2023-07-24T12:28:57;19.58;;;15.63;;
40611;SDS011;26317;44.894;20.286;2023-07-24T12:31:28;21.10;;;15.43;;
40611;SDS011;26317;44.894;20.286;2023-07-24T12:33:59;18.85;;;14.32;;
40611;SDS011;26317;44.894;20.286;2023-07-24T12:36:29;17.60;;;14.38;;
40611;SDS011;26317;44.894;20.286;2023-07-24T12:38:59;19.35;;;14.95;;
40611;SDS011;26317;44.894;20.286;2023-07-24T12:44:03;23.42;;;15.82;;
40611;SDS011;26317;44.894;20.286;2023-07-24T12:46:33;18.58;;;14.52;;
40611;SDS011;26317;44.894;20.286;2023-07-24T12:49:04;19.98;;;15.88;;
40611;SDS011;26317;44.894;20.286;2023-07-24T12:51:34;23.17;;;14.27;;
40611;SDS011;26317;44.894;20.286;2023-07-24T12:56:48;19.35;;;14.88;;
40611;SDS011;26317;44.894;20.286;2023-07-24T12:59:22;16.40;;;13.95;;
40611;SDS011;26317;44.894;20.286;2023-07-24T13:01:52;18.30;;;15.60;;
40611;SDS011;26317;44.894;20.286;2023-07-24T13:04:22;16.65;;;14.23;;
40611;SDS011;26317;44.894;20.286;2023-07-24T13:06:53;17.45;;;14.18;;
40611;SDS011;26317;44.894;20.286;2023-07-24T13:09:24;22.20;;;14.20;;
40611;SDS011;26317;44.894;20.286;2023-07-24T13:11:54;19.75;;;15.43;;
40611;SDS011;26317;44.894;20.286;2023-07-24T13:16:57;16.65;;;14.00;;
40611;SDS011;26317;44.894;20.286;2023-07-24T13:19:27;23.00;;;14.85;;
40611;SDS011;26317;44.894;20.286;2023-07-24T13:21:58;16.60;;;14.15;;
40611;SDS011;26317;44.894;20.286;2023-07-24T13:24:28;16.88;;;13.55;;
40611;SDS011;26317;44.894;20.286;2023-07-24T13:26:59;16.75;;;14.23;;
40611;SDS011;26317;44.894;20.286;2023-07-24T13:29:32;21.98;;;14.40;;
40611;SDS011;26317;44.894;20.286;2023-07-24T13:32:02;18.33;;;14.50;;
40611;SDS011;26317;44.894;20.286;2023-07-24T13:34:33;17.40;;;13.75;;
40611;SDS011;26317;44.894;20.286;2023-07-24T13:42:04;19.70;;;14.13;;
40611;SDS011;26317;44.894;20.286;2023-07-24T13:44:37;22.15;;;15.00;;
40611;SDS011;26317;44.894;20.286;2023-07-24T13:47:08;20.40;;;14.68;;
40611;SDS011;26317;44.894;20.286;2023-07-24T13:49:38;18.55;;;14.07;;
40611;SDS011;26317;44.894;20.286;2023-07-24T13:52:09;18.17;;;14.25;;
40611;SDS011;26317;44.894;20.286;2023-07-24T13:54:43;21.95;;;14.73;;
40611;SDS011;26317;44.894;20.286;2023-07-24T13:57:21;18.25;;;14.25;;
40611;SDS011;26317;44.894;20.286;2023-07-24T14:00:03;20.55;;;14.20;;
40611;SDS011;26317;44.894;20.286;2023-07-24T14:02:47;20.08;;;13.75;;
40611;SDS011;26317;44.894;20.286;2023-07-24T14:05:22;32.97;;;14.15;;
40611;SDS011;26317;44.894;20.286;2023-07-24T14:08:06;20.00;;;13.90;;
40611;SDS011;26317;44.894;20.286;2023-07-24T14:10:42;22.50;;;15.07;;
40611;SDS011;26317;44.894;20.286;2023-07-24T14:13:12;22.20;;;15.02;;
40611;SDS011;26317;44.894;20.286;2023-07-24T14:15:50;22.55;;;15.18;;
40611;SDS011;26317;44.894;20.286;2023-07-24T14:18:24;17.63;;;14.07;;
40611;SDS011;26317;44.894;20.286;2023-07-24T14:20:58;17.40;;;14.38;;
40611;SDS011;26317;44.894;20.286;2023-07-24T14:23:30;18.58;;;13.70;;
40611;SDS011;26317;44.894;20.286;2023-07-24T14:26:07;17.60;;;13.63;;
40611;SDS011;26317;44.894;20.286;2023-07-24T14:28:41;15.45;;;12.93;;
40611;SDS011;26317;44.894;20.286;2023-07-24T14:31:26;21.17;;;14.88;;
40611;SDS011;26317;44.894;20.286;2023-07-24T14:34:00;23.60;;;14.38;;
40611;SDS011;26317;44.894;20.286;2023-07-24T14:36:42;16.92;;;13.70;;
40611;SDS011;26317;44.894;20.286;2023-07-24T14:39:16;21.35;;;14.43;;
40611;SDS011;26317;44.894;20.286;2023-07-24T14:41:46;16.90;;;14.68;;
40611;SDS011;26317;44.894;20.286;2023-07-24T14:44:16;18.20;;;14.57;;
40611;SDS011;26317;44.894;20.286;2023-07-24T14:46:49;19.25;;;14.07;;
40611;SDS011;26317;44.894;20.286;2023-07-24T14:49:20;19.27;;;14.57;;
40611;SDS011;26317;44.894;20.286;2023-07-24T14:51:50;22.48;;;16.48;;
40611;SDS011;26317;44.894;20.286;2023-07-24T14:54:20;21.13;;;14.73;;
40611;SDS011;26317;44.894;20.286;2023-07-24T14:56:51;18.30;;;13.98;;
40611;SDS011;26317;44.894;20.286;2023-07-24T14:59:40;24.67;;;15.18;;
40611;SDS011;26317;44.894;20.286;2023-07-24T15:04:42;18.00;;;14.80;;
40611;SDS011;26317;44.894;20.286;2023-07-24T15:09:44;22.17;;;15.20;;
40611;SDS011;26317;44.894;20.286;2023-07-24T15:12:15;19.40;;;16.13;;
40611;SDS011;26317;44.894;20.286;2023-07-24T15:14:46;19.75;;;14.88;;
40611;SDS011;26317;44.894;20.286;2023-07-24T15:19:48;19.40;;;14.52;;